Time;durP1;ratioP1;P1;durP2;ratioP2;P2;SDS_P1;SDS_P2;PMS_P1;PMS_P2;Temp;Humidity;BMP_temperature;BMP_pressure;BME280_temperature;BME280_humidity;BME280_pressure;Samples;Min_cycle;Max_cycle;Signal;HPM_P1;HPM_P2
2022/04/18 00:00:33;;;;;;;;;;;;;;;-143.90;56.54;55075.47;2088513;28;19916;-67
2022/04/18 00:01:54;;;;;;;;;;;;;;;-143.90;57.12;55113.22;2087934;28;20492;-66
2022/04/18 00:03:15;;;;;;;;;;;;;;;-143.90;57.40;55119.16;2088431;28;19921;-65
2022/04/18 00:04:36;;;;;;;;;;;;;;;-143.90;58.06;55123.13;2088350;28;19959;-66
2022/04/18 00:05:56;;;;;;;;;;;;;;;-143.90;58.89;55081.44;2088476;28;19917;-66
2022/04/18 00:07:17;;;;;;;;;;;;;;;-143.90;59.09;55095.34;2088254;28;20514;-67
2022/04/18 00:08:38;;;;;;;;;;;;;;;-143.90;59.47;55083.41;2089399;28;19923;-66
2022/04/18 00:09:58;;;;;;;;;;;;;;;-143.90;59.96;55095.34;2088970;28;19927;-66
2022/04/18 00:11:20;;;;;;;;;;;;;;;-143.90;59.99;55095.34;2086397;28;19916;-65
2022/04/18 00:12:40;;;;;;;;;;;;;;;-143.90;60.63;55103.28;2087654;28;19927;-64
2022/04/18 00:14:01;;;;;;;;;;;;;;;-143.90;60.75;55127.09;2088299;28;19974;-66
2022/04/18 00:15:23;;;;;;;;;;;;;;;-143.90;60.83;55113.22;2087774;28;20003;-66
2022/04/18 00:16:44;;;;;;;;;;;;;;;-143.90;60.91;55119.16;2088988;28;19975;-66
2022/04/18 00:18:05;;;;;;;;;;;;;;;-143.90;61.73;55121.16;2087639;28;20561;-65
2022/04/18 00:19:25;;;;;;;;;;;;;;;-143.90;61.59;55117.19;2087968;28;19943;-65
2022/04/18 00:20:47;;;;;;;;;;;;;;;-143.90;61.99;55111.22;2088591;28;19923;-66
2022/04/18 00:22:14;;;;;;;;;;;;;;;-143.90;62.45;55111.22;2088053;28;19927;-65
2022/04/18 00:23:35;;;;;;;;;;;;;;;-143.90;62.77;55133.06;2089098;28;19927;-66
2022/04/18 00:24:55;;;;;;;;;;;;;;;-143.90;63.38;55097.31;2088815;28;19994;-66
2022/04/18 00:26:16;;;;;;;;;;;;;;;-143.90;63.33;55083.41;2087826;28;19924;-66
2022/04/18 00:27:36;;;;;;;;;;;;;;;-143.90;63.94;55091.38;2080512;28;19921;-67
2022/04/18 00:28:57;;;;;;;;;;;;;;;-143.90;65.15;55091.38;2080207;28;19925;-65
2022/04/18 00:30:18;;;;;;;;;;;;;;;-143.90;65.80;55095.34;2086889;28;20361;-67
2022/04/18 00:31:39;;;;;;;;;;;;;;;-143.90;65.96;55115.19;2090005;28;19916;-66
2022/04/18 00:32:59;;;;;;;;;;;;;;;-143.90;66.85;55131.06;2089739;28;20435;-66
2022/04/18 00:34:20;;;;;;;;;;;;;;;-143.90;66.79;55109.22;2088456;28;20663;-66
2022/04/18 00:35:41;;;;;;;;;;;;;;;-143.90;66.77;55115.19;2088869;28;19921;-65
2022/04/18 00:37:02;;;;;;;;;;;;;;;-143.90;67.50;55143.00;2087874;28;20711;-66
2022/04/18 00:38:22;;;;;;;;;;;;;;;-143.90;68.67;55087.41;2087821;28;19936;-67
2022/04/18 00:39:43;;;;;;;;;;;;;;;-143.90;69.21;55055.63;2085399;28;19916;-66
2022/04/18 00:41:05;;;;;;;;;;;;;;;-143.90;69.96;55079.44;2084610;28;20042;-66
2022/04/18 00:42:25;;;;;;;;;;;;;;;-143.90;69.99;55146.97;2084174;28;20308;-67
2022/04/18 00:43:47;;;;;;;;;;;;;;;-143.90;70.51;55107.25;2087685;28;20376;-66
2022/04/18 00:45:08;;;;;;;;;;;;;;;-143.90;71.32;55111.22;2086667;28;20471;-67
2022/04/18 00:46:28;;;;;;;;;;;;;;;-143.90;70.65;55127.09;2088557;28;19924;-66
2022/04/18 00:47:50;;;;;;;;;;;;;;;-143.90;71.05;55107.25;2083606;28;19959;-64
2022/04/18 00:49:10;;;;;;;;;;;;;;;-143.90;71.89;55103.28;2086917;28;19917;-66
2022/04/18 00:50:32;;;;;;;;;;;;;;;-143.90;72.33;55093.34;2088279;28;20568;-66
2022/04/18 00:51:53;;;;;;;;;;;;;;;-143.90;72.31;55073.50;2080015;28;19923;-67
2022/04/18 00:53:14;;;;;;;;;;;;;;;-143.90;73.25;55127.09;2076324;28;19920;-67
2022/04/18 00:54:35;;;;;;;;;;;;;;;-143.90;73.65;55107.25;2076434;28;19917;-67
2022/04/18 00:55:55;;;;;;;;;;;;;;;-143.90;74.09;55107.25;2085406;28;20542;-65
2022/04/18 00:57:16;;;;;;;;;;;;;;;-143.90;73.50;55079.44;2088951;28;20853;-66
2022/04/18 00:58:37;;;;;;;;;;;;;;;-143.90;73.73;55083.41;2088988;28;19928;-66
2022/04/18 00:59:58;;;;;;;;;;;;;;;-143.90;74.15;55107.25;2079227;28;19917;-66
2022/04/18 01:01:19;;;;;;;;;;;;;;;-143.90;75.47;55109.22;2078168;28;19925;-65
2022/04/18 01:02:43;;;;;;;;;;;;;;;-143.90;75.81;55093.34;2077560;28;19916;-66
2022/04/18 01:04:04;;;;;;;;;;;;;;;-143.90;76.62;55154.91;2085137;28;19975;-66
2022/04/18 01:05:25;;;;;;;;;;;;;;;-143.90;77.35;55083.41;2089336;28;19944;-67
2022/04/18 01:06:46;;;;;;;;;;;;;;;-143.90;77.85;55079.44;2088858;28;20523;-65
2022/04/18 01:08:07;;;;;;;;;;;;;;;-143.90;78.31;55083.41;2070965;28;19921;-66
2022/04/18 01:09:27;;;;;;;;;;;;;;;-143.90;78.79;55129.09;2083697;28;20007;-66
2022/04/18 01:10:49;;;;;;;;;;;;;;;-143.90;79.68;55099.31;2079541;28;19917;-65
2022/04/18 01:12:10;;;;;;;;;;;;;;;-143.90;79.83;55111.22;2069130;28;19962;-66
2022/04/18 01:13:50;;;;;;;;;;;;;;;-143.90;79.52;55107.25;2086563;28;19921;-66
2022/04/18 01:15:29;;;;;;;;;;;;;;;-143.90;80.39;55131.06;2082991;28;19967;-65
2022/04/18 01:16:59;;;;;;;;;;;;;;;-143.90;80.71;55111.22;2077885;28;19913;-66
2022/04/18 01:18:31;;;;;;;;;;;;;;;-143.90;81.00;55143.00;2071646;28;20060;-65
2022/04/18 01:20:00;;;;;;;;;;;;;;;-143.90;81.61;55148.94;2080856;28;19979;-64
2022/04/18 01:21:59;;;;;;;;;;;;;;;-143.90;82.86;55095.34;2064236;28;19963;-66
2022/04/18 01:23:41;;;;;;;;;;;;;;;-143.90;83.68;55097.31;2059428;28;20025;-65
2022/04/18 01:30:19;;;;;;;;;;;;;;;-143.90;86.46;55148.94;2080969;28;19928;-66
2022/04/18 01:31:40;;;;;;;;;;;;;;;-143.90;86.59;55101.28;2078382;28;19983;-66
2022/04/18 01:33:01;;;;;;;;;;;;;;;-143.90;87.22;55131.06;2078691;28;19921;-67
2022/04/18 01:34:22;;;;;;;;;;;;;;;-143.90;87.54;55131.06;2080775;28;20422;-67
2022/04/18 01:35:42;;;;;;;;;;;;;;;-143.90;87.34;55087.41;2081153;28;19925;-65
2022/04/18 01:37:03;;;;;;;;;;;;;;;-143.90;87.46;55113.22;2082217;28;19921;-67
2022/04/18 01:38:24;;;;;;;;;;;;;;;-143.90;87.97;55144.97;2080218;28;19928;-64
2022/04/18 01:39:45;;;;;;;;;;;;;;;-143.90;88.72;55099.31;2079281;28;19927;-66
2022/04/18 01:41:06;;;;;;;;;;;;;;;-143.90;89.17;55103.28;2077239;28;19923;-66
2022/04/18 01:42:26;;;;;;;;;;;;;;;-143.90;89.30;55093.34;2081081;28;19991;-67
2022/04/18 01:43:47;;;;;;;;;;;;;;;-143.90;89.86;55111.22;2087227;28;19928;-64
2022/04/18 01:45:08;;;;;;;;;;;;;;;-143.90;89.94;55135.03;2091206;28;19927;-65
2022/04/18 01:46:29;;;;;;;;;;;;;;;-143.90;90.06;55131.06;2084839;28;20523;-64
2022/04/18 01:47:50;;;;;;;;;;;;;;;-143.90;91.19;55127.09;2081299;28;19921;-66
2022/04/18 01:49:12;;;;;;;;;;;;;;;-143.90;90.49;55081.44;2078288;28;19925;-66
2022/04/18 01:50:33;;;;;;;;;;;;;;;-143.90;90.67;55083.41;2086875;28;19928;-66
2022/04/18 01:51:53;;;;;;;;;;;;;;;-143.90;90.05;55099.31;2082271;28;19921;-65
2022/04/18 01:53:14;;;;;;;;;;;;;;;-143.90;90.46;55111.22;2078277;28;20515;-67
2022/04/18 01:54:36;;;;;;;;;;;;;;;-143.90;90.19;55103.28;2077826;28;19921;-66
2022/04/18 01:55:57;;;;;;;;;;;;;;;-143.90;90.25;55117.19;2078419;28;19917;-67
2022/04/18 01:57:22;;;;;;;;;;;;;;;-143.90;89.37;55095.34;2080639;28;20686;-65
2022/04/18 01:58:44;;;;;;;;;;;;;;;-143.90;90.10;55085.41;2080753;28;20610;-66
2022/04/18 02:00:06;;;;;;;;;;;;;;;-143.90;90.19;55119.16;2079066;28;19921;-66
2022/04/18 02:01:34;;;;;;;;;;;;;;;-143.90;90.05;55123.13;2090010;28;19927;-65
2022/04/18 02:02:55;;;;;;;;;;;;;;;-143.90;90.19;55127.09;2081219;28;19925;-67
2022/04/18 02:04:16;;;;;;;;;;;;;;;-143.90;90.15;55059.59;2088021;28;20459;-66
2022/04/18 02:05:37;;;;;;;;;;;;;;;-143.90;91.23;55079.44;2089477;28;19921;-66
2022/04/18 02:06:57;;;;;;;;;;;;;;;-143.90;91.06;55127.09;2079588;28;19987;-66
2022/04/18 02:08:18;;;;;;;;;;;;;;;-143.90;91.07;55123.13;2080955;28;19933;-65
2022/04/18 02:09:39;;;;;;;;;;;;;;;-143.90;90.95;55075.47;2079410;28;20369;-66
2022/04/18 02:11:04;;;;;;;;;;;;;;;-143.90;90.68;55103.28;2079134;28;20008;-66
2022/04/18 02:12:29;;;;;;;;;;;;;;;-143.90;90.94;55127.09;2072058;28;19921;-66
2022/04/18 02:13:55;;;;;;;;;;;;;;;-143.90;91.01;55063.56;2076903;28;19948;-64
2022/04/18 02:15:16;;;;;;;;;;;;;;;-143.90;92.15;55103.28;2077493;28;20533;-65
2022/04/18 02:16:57;;;;;;;;;;;;;;;-143.90;93.41;55125.13;2088520;28;19916;-66
2022/04/18 02:18:18;;;;;;;;;;;;;;;-143.90;94.13;55119.16;2090276;28;20331;-66
2022/04/18 02:19:39;;;;;;;;;;;;;;;-143.90;93.17;55125.13;2089931;28;19952;-65
2022/04/18 02:21:00;;;;;;;;;;;;;;;-143.90;93.27;55131.06;2080329;28;19927;-67
2022/04/18 02:22:23;;;;;;;;;;;;;;;-143.90;93.82;55139.03;2087905;28;19917;-65
2022/04/18 02:23:44;;;;;;;;;;;;;;;-143.90;94.50;55109.22;2090101;28;19925;-66
2022/04/18 02:25:05;;;;;;;;;;;;;;;-143.90;94.45;55103.28;2089815;28;19921;-66
2022/04/18 02:26:26;;;;;;;;;;;;;;;-143.90;93.86;55099.31;2071470;28;20016;-67
2022/04/18 02:27:57;;;;;;;;;;;;;;;-143.90;93.61;55148.94;2071902;28;19921;-67
2022/04/18 02:29:18;;;;;;;;;;;;;;;-143.90;93.52;55107.25;2069474;28;19921;-65
2022/04/18 02:30:39;;;;;;;;;;;;;;;-143.90;93.82;55107.25;2069904;28;19922;-66
2022/04/18 02:33:39;;;;;;;;;;;;;;;-143.90;93.50;55107.25;2080994;28;20416;-66
2022/04/18 02:35:01;;;;;;;;;;;;;;;-143.90;94.01;55103.28;2081742;28;20391;-66
2022/04/18 02:36:21;;;;;;;;;;;;;;;-143.90;94.15;55111.22;2080618;28;19921;-66
2022/04/18 02:37:42;;;;;;;;;;;;;;;-143.90;94.19;55113.22;2072473;28;19932;-66
2022/04/18 02:39:05;;;;;;;;;;;;;;;-143.90;95.24;55111.22;2068913;28;19928;-66
2022/04/18 02:40:26;;;;;;;;;;;;;;;-143.90;94.83;55099.31;2069696;28;19921;-66
2022/04/18 02:41:48;;;;;;;;;;;;;;;-143.90;95.50;55075.47;2074027;28;20028;-64
2022/04/18 02:43:09;;;;;;;;;;;;;;;-143.90;96.01;55087.41;2070965;28;20385;-66
2022/04/18 02:44:31;;;;;;;;;;;;;;;-143.90;96.03;55107.25;2073637;28;19918;-66
2022/04/18 02:45:52;;;;;;;;;;;;;;;-143.90;96.39;55111.22;2070123;28;19997;-66
2022/04/18 02:47:25;;;;;;;;;;;;;;;-143.90;97.74;55119.16;2080085;28;19921;-66
2022/04/18 02:48:49;;;;;;;;;;;;;;;-143.90;98.88;55121.16;2073119;28;19921;-66
2022/04/18 02:50:12;;;;;;;;;;;;;;;-143.90;99.81;55113.22;2073673;28;19940;-65
2022/04/18 02:51:33;;;;;;;;;;;;;;;-143.90;99.79;55131.06;2064015;28;19928;-66
2022/04/18 02:53:00;;;;;;;;;;;;;;;-143.90;100.00;55111.22;2075307;28;20456;-67
2022/04/18 02:54:46;;;;;;;;;;;;;;;-143.90;100.00;55119.16;2076983;28;19921;-66
2022/04/18 02:56:07;;;;;;;;;;;;;;;-143.90;100.00;55115.19;2072184;28;20397;-66
2022/04/18 02:57:41;;;;;;;;;;;;;;;-143.90;100.00;55154.91;2074583;28;20511;-67
2022/04/18 02:59:03;;;;;;;;;;;;;;;-143.90;100.00;55095.34;2070189;28;20403;-67
2022/04/18 03:00:24;;;;;;;;;;;;;;;-143.90;100.00;55146.97;2068905;28;20503;-63
2022/04/18 03:01:46;;;;;;;;;;;;;;;-143.90;100.00;55125.13;2072856;28;19952;-66
2022/04/18 03:03:06;;;;;;;;;;;;;;;-143.90;100.00;55107.25;2071227;28;20423;-64
2022/04/18 03:04:30;;;;;;;;;;;;;;;-143.90;100.00;55111.22;2073491;28;19921;-64
2022/04/18 03:05:50;;;;;;;;;;;;;;;-143.90;100.00;55144.97;2069370;28;20012;-63
2022/04/18 03:07:12;;;;;;;;;;;;;;;-143.90;100.00;55061.59;2070128;28;20990;-64
2022/04/18 03:08:33;;;;;;;;;;;;;;;-143.90;100.00;55119.16;2070187;28;19921;-63
2022/04/18 03:09:55;;;;;;;;;;;;;;;-143.90;100.00;55121.16;2079072;28;19925;-64
2022/04/18 03:11:16;;;;;;;;;;;;;;;-143.90;100.00;55107.25;2080981;28;19921;-64
2022/04/18 03:12:37;;;;;;;;;;;;;;;-143.90;100.00;55093.34;2072291;28;20494;-63
2022/04/18 03:13:58;;;;;;;;;;;;;;;-143.90;100.00;55087.41;2071513;28;19928;-64
2022/04/18 03:15:37;;;;;;;;;;;;;;;-143.90;100.00;55119.16;2072414;28;20813;-65
2022/04/18 03:16:58;;;;;;;;;;;;;;;-143.90;100.00;55123.13;2070821;28;19921;-64
2022/04/18 03:18:20;;;;;;;;;;;;;;;-143.90;100.00;55123.13;2076526;28;20550;-65
2022/04/18 03:19:41;;;;;;;;;;;;;;;-143.90;100.00;55119.16;2066869;28;20007;-63
2022/04/18 03:21:03;;;;;;;;;;;;;;;-143.90;100.00;55119.16;2069954;28;19951;-64
2022/04/18 03:22:24;;;;;;;;;;;;;;;-143.90;100.00;55095.34;2078202;28;19928;-65
2022/04/18 03:23:45;;;;;;;;;;;;;;;-143.90;100.00;55109.22;2071697;28;19964;-65
2022/04/18 03:25:15;;;;;;;;;;;;;;;-143.90;100.00;55125.13;2071290;28;19917;-65
2022/04/18 03:26:36;;;;;;;;;;;;;;;-143.90;100.00;55133.06;2079480;28;19925;-65
2022/04/18 03:28:09;;;;;;;;;;;;;;;-143.90;100.00;55150.94;2078502;28;20365;-66
2022/04/18 03:29:33;;;;;;;;;;;;;;;-143.90;100.00;55091.38;2086655;28;19920;-63
2022/04/18 03:30:55;;;;;;;;;;;;;;;-143.90;100.00;55123.13;2081169;28;19928;-65
2022/04/18 03:32:15;;;;;;;;;;;;;;;-143.90;100.00;55091.38;2085952;28;19930;-65
2022/04/18 03:33:36;;;;;;;;;;;;;;;-143.90;100.00;55083.41;2087633;28;20664;-65
2022/04/18 03:34:57;;;;;;;;;;;;;;;-143.90;100.00;55119.16;2087688;28;19972;-65
2022/04/18 03:39:53;;;;;;;;;;;;;;;-143.90;100.00;55143.00;2081010;28;19917;-65
2022/04/18 03:41:20;;;;;;;;;;;;;;;-143.90;100.00;55117.19;2080140;28;19920;-64
2022/04/18 03:42:42;;;;;;;;;;;;;;;-143.90;100.00;55081.44;2085421;28;19916;-65
2022/04/18 03:44:09;;;;;;;;;;;;;;;-143.90;100.00;55099.31;2083825;28;19927;-65
2022/04/18 03:45:29;;;;;;;;;;;;;;;-143.90;100.00;55111.22;2078512;28;19916;-64
2022/04/18 03:46:50;;;;;;;;;;;;;;;-143.90;100.00;55107.25;2085544;28;19924;-64
2022/04/18 03:48:11;;;;;;;;;;;;;;;-143.90;100.00;55099.31;2088527;28;20540;-64
2022/04/18 03:49:32;;;;;;;;;;;;;;;-143.90;100.00;55121.16;2082031;28;19924;-64
2022/04/18 03:50:52;;;;;;;;;;;;;;;-143.90;100.00;55107.25;2076150;28;20480;-64
2022/04/18 03:52:13;;;;;;;;;;;;;;;-143.90;100.00;55099.31;2078008;28;19931;-64
2022/04/18 03:53:34;;;;;;;;;;;;;;;-143.90;100.00;55111.22;2078198;28;19960;-64
2022/04/18 03:54:55;;;;;;;;;;;;;;;-143.90;100.00;55095.34;2085796;28;19921;-64
2022/04/18 03:56:22;;;;;;;;;;;;;;;-143.90;100.00;55127.09;2080618;28;20120;-64
2022/04/18 03:58:05;;;;;;;;;;;;;;;-143.90;100.00;55087.41;2089279;28;20808;-64
2022/04/18 03:59:27;;;;;;;;;;;;;;;-143.90;100.00;55148.94;2088562;28;19923;-64
2022/04/18 04:01:06;;;;;;;;;;;;;;;-143.90;100.00;55146.97;2071934;28;19921;-63
2022/04/18 04:02:26;;;;;;;;;;;;;;;-143.90;100.00;55067.53;2081595;28;19924;-64
2022/04/18 04:03:49;;;;;;;;;;;;;;;-143.90;100.00;55111.22;2079313;28;19947;-64
2022/04/18 04:05:10;;;;;;;;;;;;;;;-143.90;100.00;55123.13;2079790;28;20721;-64
2022/04/18 04:06:32;;;;;;;;;;;;;;;-143.90;100.00;55075.47;2079204;28;19917;-64
2022/04/18 04:07:53;;;;;;;;;;;;;;;-143.90;100.00;55123.13;2080812;28;19979;-64
2022/04/18 04:09:22;;;;;;;;;;;;;;;-143.90;100.00;55099.31;2078646;28;20050;-65
2022/04/18 04:10:42;;;;;;;;;;;;;;;-143.90;100.00;55097.31;2079386;28;20341;-64
2022/04/18 04:12:04;;;;;;;;;;;;;;;-143.90;100.00;55107.25;2078957;28;19924;-64
2022/04/18 04:13:31;;;;;;;;;;;;;;;-143.90;100.00;55135.03;2080598;28;19921;-65
2022/04/18 04:15:04;;;;;;;;;;;;;;;-143.90;100.00;55146.97;2078442;28;19920;-64
2022/04/18 04:16:33;;;;;;;;;;;;;;;-143.90;100.00;55143.00;2080265;28;20154;-64
2022/04/18 04:17:55;;;;;;;;;;;;;;;-143.90;100.00;55091.38;2085637;28;19925;-64
2022/04/18 04:19:17;;;;;;;;;;;;;;;-143.90;100.00;55123.13;2080574;28;19917;-63
2022/04/18 04:20:38;;;;;;;;;;;;;;;-143.90;100.00;55087.41;2078882;28;19921;-64
2022/04/18 04:21:59;;;;;;;;;;;;;;;-143.90;100.00;55135.03;2077311;28;20027;-64
2022/04/18 04:23:19;;;;;;;;;;;;;;;-143.90;100.00;55139.03;2076886;28;20364;-65
2022/04/18 04:25:00;;;;;;;;;;;;;;;-143.90;100.00;55127.09;2086946;28;19927;-64
2022/04/18 04:26:24;;;;;;;;;;;;;;;-143.90;100.00;55154.91;2071980;28;19972;-64
2022/04/18 04:27:46;;;;;;;;;;;;;;;-143.90;100.00;55091.38;2077706;28;19976;-64
2022/04/18 04:29:07;;;;;;;;;;;;;;;-143.90;100.00;55073.50;2072025;28;19929;-61
2022/04/18 04:30:33;;;;;;;;;;;;;;;-143.90;100.00;55133.06;2072145;28;19928;-64
2022/04/18 04:31:58;;;;;;;;;;;;;;;-143.90;100.00;55135.03;2070092;28;20348;-64
2022/04/18 04:33:21;;;;;;;;;;;;;;;-143.90;100.00;55115.19;2070434;28;20409;-65
2022/04/18 04:34:45;;;;;;;;;;;;;;;-143.90;100.00;55091.38;2067103;28;19983;-64
2022/04/18 04:36:25;;;;;;;;;;;;;;;-143.90;100.00;55174.75;2079718;28;20294;-64
2022/04/18 04:37:51;;;;;;;;;;;;;;;-143.90;100.00;55143.00;2072118;28;19964;-65
2022/04/18 04:39:32;;;;;;;;;;;;;;;-143.90;100.00;55101.28;2079499;28;19985;-65
2022/04/18 04:40:53;;;;;;;;;;;;;;;-143.90;100.00;55087.41;2072487;28;20420;-64
2022/04/18 04:42:34;;;;;;;;;;;;;;;-143.90;100.00;55123.13;2079695;28;19921;-64
2022/04/18 04:43:55;;;;;;;;;;;;;;;-143.90;100.00;55107.25;2071394;28;19925;-63
2022/04/18 04:45:24;;;;;;;;;;;;;;;-143.90;100.00;55083.41;2070652;28;19921;-63
2022/04/18 04:47:11;;;;;;;;;;;;;;;-143.90;100.00;55119.16;2079056;28;19924;-64
2022/04/18 04:48:32;;;;;;;;;;;;;;;-143.90;100.00;55111.22;2071896;28;19928;-65
2022/04/18 04:50:00;;;;;;;;;;;;;;;-143.90;100.00;55089.38;2072683;28;20392;-63
2022/04/18 04:51:27;;;;;;;;;;;;;;;-143.90;100.00;55099.31;2072176;28;20336;-65
2022/04/18 04:52:49;;;;;;;;;;;;;;;-143.90;100.00;55127.09;2070519;28;19921;-65
2022/04/18 04:54:10;;;;;;;;;;;;;;;-143.90;100.00;55089.38;2071662;28;19927;-65
2022/04/18 04:55:35;;;;;;;;;;;;;;;-143.90;100.00;55103.28;2072074;28;19928;-64
2022/04/18 04:56:56;;;;;;;;;;;;;;;-143.90;100.00;55113.22;2073578;28;19928;-64
2022/04/18 04:58:23;;;;;;;;;;;;;;;-143.90;100.00;55107.25;2081650;28;19925;-64
2022/04/18 04:59:59;;;;;;;;;;;;;;;-143.90;100.00;55089.38;2073466;28;19918;-64
2022/04/18 05:01:21;;;;;;;;;;;;;;;-143.90;100.00;55099.31;2073142;28;20024;-63
2022/04/18 05:02:49;;;;;;;;;;;;;;;-143.90;100.00;55119.16;2072107;28;20522;-64
2022/04/18 05:04:09;;;;;;;;;;;;;;;-143.90;100.00;55111.22;2077869;28;19921;-63
2022/04/18 05:05:32;;;;;;;;;;;;;;;-143.90;100.00;55087.41;2079162;28;20262;-65
2022/04/18 05:06:53;;;;;;;;;;;;;;;-143.90;100.00;55087.41;2079824;28;19924;-64
2022/04/18 05:08:25;;;;;;;;;;;;;;;-143.90;100.00;55073.50;2088228;28;20028;-64
2022/04/18 05:09:45;;;;;;;;;;;;;;;-143.90;100.00;55099.31;2081900;28;20004;-64
2022/04/18 05:11:06;;;;;;;;;;;;;;;-143.90;100.00;55111.22;2078988;28;20012;-64
2022/04/18 05:12:47;;;;;;;;;;;;;;;-143.90;100.00;55123.13;2083314;28;19955;-64
2022/04/18 05:14:08;;;;;;;;;;;;;;;-143.90;100.00;55083.41;2078665;28;19956;-63
2022/04/18 05:15:36;;;;;;;;;;;;;;;-143.90;100.00;55093.34;2080574;28;19921;-65
2022/04/18 05:17:16;;;;;;;;;;;;;;;-143.90;100.00;55099.31;2083010;28;19917;-65
2022/04/18 05:18:43;;;;;;;;;;;;;;;-143.90;100.00;55127.09;2082139;28;20264;-65
2022/04/18 05:20:06;;;;;;;;;;;;;;;-143.90;100.00;55107.25;2072258;28;20521;-65
2022/04/18 05:21:29;;;;;;;;;;;;;;;-143.90;100.00;55121.16;2079519;28;19924;-64
2022/04/18 05:22:55;;;;;;;;;;;;;;;-143.90;100.00;55091.38;2079350;28;19917;-65
2022/04/18 05:24:16;;;;;;;;;;;;;;;-143.90;100.00;55107.25;2083693;28;20324;-64
2022/04/18 05:25:36;;;;;;;;;;;;;;;-143.90;100.00;55073.50;2081372;28;19916;-65
2022/04/18 05:26:57;;;;;;;;;;;;;;;-143.90;100.00;55079.44;2078136;28;19921;-65
2022/04/18 05:28:18;;;;;;;;;;;;;;;-143.90;99.54;55097.31;2080261;28;19989;-65
2022/04/18 05:29:44;;;;;;;;;;;;;;;-143.90;96.26;55083.41;2085957;28;20418;-67
2022/04/18 05:31:05;;;;;;;;;;;;;;;-143.90;90.13;55075.47;2081087;28;19921;-67
2022/04/18 05:32:27;;;;;;;;;;;;;;;-143.90;85.04;55077.47;2081935;28;19944;-66
2022/04/18 05:33:57;;;;;;;;;;;;;;;-143.90;80.80;55059.59;2087511;28;19940;-66
2022/04/18 05:35:27;;;;;;;;;;;;;;;-143.90;77.02;55057.59;2081359;28;20644;-67
2022/04/18 05:36:50;;;;;;;;;;;;;;;-143.90;74.12;55083.41;2087077;28;19917;-67
2022/04/18 05:38:27;;;;;;;;;;;;;;;-143.90;71.02;55071.50;2080229;28;19921;-65
2022/04/18 05:39:55;;;;;;;;;;;;;;;-143.90;68.25;55041.72;2085700;28;19917;-65
2022/04/18 05:41:16;;;;;;;;;;;;;;;-143.90;66.45;55043.72;2079977;28;19925;-65
2022/04/18 05:42:39;;;;;;;;;;;;;;;-143.90;64.96;55061.59;2080430;28;19927;-66
2022/04/18 05:44:04;;;;;;;;;;;;;;;-143.90;63.55;55055.63;2086376;28;20297;-66
2022/04/18 05:45:34;;;;;;;;;;;;;;;-143.90;61.39;55051.66;2081811;28;20273;-65
2022/04/18 05:47:01;;;;;;;;;;;;;;;-143.90;60.36;55061.59;2073702;28;19924;-64
2022/04/18 05:48:23;;;;;;;;;;;;;;;-143.90;59.73;55035.78;2078789;28;19921;-63
2022/04/18 05:49:48;;;;;;;;;;;;;;;-143.90;57.63;55047.69;2072408;28;20679;-63
2022/04/18 05:51:09;;;;;;;;;;;;;;;-143.90;57.79;55013.94;2077512;28;19920;-65
2022/04/18 05:52:31;;;;;;;;;;;;;;;-143.90;56.91;55063.56;2071415;28;19922;-63
2022/04/18 05:54:03;;;;;;;;;;;;;;;-143.90;57.32;55051.66;2071234;28;19921;-63
2022/04/18 05:55:35;;;;;;;;;;;;;;;-143.90;59.10;55039.75;2070811;28;19921;-63
2022/04/18 05:57:00;;;;;;;;;;;;;;;-143.90;58.76;55079.44;2078576;28;19949;-62
2022/04/18 05:58:31;;;;;;;;;;;;;;;-143.90;59.83;55043.72;2073653;28;19921;-64
2022/04/18 05:59:54;;;;;;;;;;;;;;;-143.90;59.12;55071.50;2074199;28;19944;-63
2022/04/18 06:01:19;;;;;;;;;;;;;;;-143.90;59.23;55027.81;2073740;28;20352;-65
2022/04/18 06:02:41;;;;;;;;;;;;;;;-143.90;57.87;55025.84;2071361;28;20884;-66
2022/04/18 06:04:06;;;;;;;;;;;;;;;-143.90;55.98;55019.88;2070354;28;19964;-66
2022/04/18 06:05:27;;;;;;;;;;;;;;;-143.90;55.86;55033.78;2069429;28;19917;-66
2022/04/18 06:06:56;;;;;;;;;;;;;;;-143.90;54.66;55047.69;2071545;28;20076;-65
2022/04/18 06:08:18;;;;;;;;;;;;;;;-143.90;53.74;55004.00;2072231;28;20000;-66
2022/04/18 06:09:46;;;;;;;;;;;;;;;-143.90;53.71;55031.78;2074319;28;19921;-66
2022/04/18 06:11:07;;;;;;;;;;;;;;;-143.90;54.04;55071.50;2073354;28;20035;-66
2022/04/18 06:12:41;;;;;;;;;;;;;;;-143.90;53.03;55029.81;2073952;28;19928;-66
2022/04/18 06:14:02;;;;;;;;;;;;;;;-143.90;52.41;55035.78;2078431;28;20015;-64
2022/04/18 06:15:23;;;;;;;;;;;;;;;-143.90;52.62;55039.75;2071122;28;19988;-66
2022/04/18 06:16:44;;;;;;;;;;;;;;;-143.90;51.08;55000.03;2070836;28;20016;-66
2022/04/18 06:18:05;;;;;;;;;;;;;;;-143.90;50.50;54966.28;2070311;28;19991;-66
2022/04/18 06:19:26;;;;;;;;;;;;;;;-143.90;50.27;55015.91;2077733;28;19928;-66
2022/04/18 06:20:47;;;;;;;;;;;;;;;-143.90;50.32;55004.00;2072734;28;19924;-66
2022/04/18 06:22:11;;;;;;;;;;;;;;;-143.90;50.32;55027.81;2076919;28;19972;-66
2022/04/18 06:23:32;;;;;;;;;;;;;;;-143.90;49.97;55047.69;2079896;28;20910;-66
2022/04/18 06:25:13;;;;;;;;;;;;;;;-143.90;48.40;54980.19;2071845;28;19929;-66
2022/04/18 06:26:34;;;;;;;;;;;;;;;-143.90;48.63;55047.69;2088711;28;19944;-66
2022/04/18 06:27:56;;;;;;;;;;;;;;;-143.90;48.36;55023.84;2081465;28;19998;-66
2022/04/18 06:29:21;;;;;;;;;;;;;;;-143.90;48.30;54986.13;2078020;28;20459;-66
2022/04/18 06:30:44;;;;;;;;;;;;;;;-143.90;47.58;55007.97;2086453;28;19920;-66
2022/04/18 06:32:25;;;;;;;;;;;;;;;-143.90;47.78;54972.22;2080418;28;19917;-65
2022/04/18 06:33:47;;;;;;;;;;;;;;;-143.90;48.03;54984.16;2081930;28;19980;-66
2022/04/18 06:35:08;;;;;;;;;;;;;;;-143.90;47.07;54954.38;2076924;28;19917;-66
2022/04/18 06:36:29;;;;;;;;;;;;;;;-143.90;46.31;54996.06;2085738;28;19929;-66
2022/04/18 06:38:08;;;;;;;;;;;;;;;-143.90;45.30;54972.22;2081115;28;19917;-66
2022/04/18 06:39:54;;;;;;;;;;;;;;;-143.90;44.64;54980.19;2079915;28;19921;-66
2022/04/18 06:41:23;;;;;;;;;;;;;;;-143.90;44.41;54988.13;2079417;28;19960;-66
2022/04/18 06:42:44;;;;;;;;;;;;;;;-143.90;44.26;54928.56;2073997;28;20468;-65
2022/04/18 06:44:14;;;;;;;;;;;;;;;-143.90;43.57;54944.44;2086843;28;20403;-66
2022/04/18 06:45:45;;;;;;;;;;;;;;;-143.90;44.33;54976.19;2087717;28;19970;-66
2022/04/18 06:47:06;;;;;;;;;;;;;;;-143.90;44.41;54996.06;2081286;28;20007;-66
2022/04/18 06:48:50;;;;;;;;;;;;;;;-143.90;43.88;54956.34;2088621;28;19927;-67
2022/04/18 06:50:25;;;;;;;;;;;;;;;-143.90;44.44;54940.47;2088591;28;19917;-65
2022/04/18 06:52:24;;;;;;;;;;;;;;;-143.90;44.83;54988.13;2088496;28;19920;-66
2022/04/18 06:54:10;;;;;;;;;;;;;;;-143.90;45.32;54982.16;2089216;28;20474;-63
2022/04/18 06:57:38;;;;;;;;;;;;;;;-143.90;44.64;54986.13;2088506;28;19939;-66
2022/04/18 06:59:04;;;;;;;;;;;;;;;-143.90;43.83;54944.44;2080891;28;20302;-64
2022/04/18 07:00:30;;;;;;;;;;;;;;;-143.90;44.54;54984.16;2079448;28;19925;-64
2022/04/18 07:01:50;;;;;;;;;;;;;;;-143.90;44.73;54960.31;2085719;28;19928;-64
2022/04/18 07:03:12;;;;;;;;;;;;;;;-143.90;43.78;54944.44;2080755;28;19933;-64
2022/04/18 07:04:33;;;;;;;;;;;;;;;-143.90;43.54;54932.53;2078836;28;20079;-64
2022/04/18 07:05:54;;;;;;;;;;;;;;;-143.90;43.26;54928.56;2079943;28;19921;-65
2022/04/18 07:07:15;;;;;;;;;;;;;;;-143.90;42.74;54944.44;2086500;28;19928;-65
2022/04/18 07:08:35;;;;;;;;;;;;;;;-143.90;42.73;54948.41;2080135;28;19923;-65
2022/04/18 07:10:15;;;;;;;;;;;;;;;-143.90;42.35;54960.31;2088251;28;20328;-65
2022/04/18 07:11:36;;;;;;;;;;;;;;;-143.90;42.92;54932.53;2084296;28;19926;-65
2022/04/18 07:12:57;;;;;;;;;;;;;;;-143.90;42.41;54928.56;2087454;28;19982;-64
2022/04/18 07:14:19;;;;;;;;;;;;;;;-143.90;42.07;54946.41;2081271;28;19917;-65
2022/04/18 07:15:43;;;;;;;;;;;;;;;-143.90;41.71;54976.19;2077913;28;19995;-65
2022/04/18 07:17:08;;;;;;;;;;;;;;;-143.90;41.18;54956.34;2076307;28;19937;-65
2022/04/18 07:18:31;;;;;;;;;;;;;;;-143.90;41.08;54946.41;2077954;28;20003;-64